createdAt,value
2023-01-05T00:01:44.309Z,1.13
2023-01-05T00:04:45.851Z,1.00
2023-01-05T00:07:47.241Z,0.67
2023-01-05T00:11:07.428Z,1.17
2023-01-05T00:14:35.910Z,0.87
2023-01-05T00:17:55.823Z,1.73
2023-01-05T00:21:35.367Z,1.13
2023-01-05T00:24:36.766Z,0.63
2023-01-05T00:27:38.759Z,1.17
2023-01-05T00:30:45.497Z,1.30
2023-01-05T00:33:46.928Z,0.97
2023-01-05T00:36:48.357Z,1.27
2023-01-05T00:39:50.099Z,1.23
2023-01-05T00:42:51.557Z,1.13
2023-01-05T00:45:52.977Z,1.23
2023-01-05T00:48:54.390Z,0.80
2023-01-05T00:51:55.778Z,0.87
2023-01-05T00:54:57.207Z,0.73
2023-01-05T00:57:58.605Z,1.10
2023-01-05T01:01:00.080Z,0.90
2023-01-05T01:04:01.566Z,1.73
2023-01-05T01:07:03.738Z,1.30
2023-01-05T01:10:06.479Z,0.70
2023-01-05T01:13:08.966Z,1.33
2023-01-05T01:16:13.423Z,2.40
2023-01-05T01:19:20.489Z,1.80
2023-01-05T01:22:22.748Z,1.00
2023-01-05T01:25:24.133Z,0.70
2023-01-05T01:28:25.547Z,0.70
2023-01-05T01:31:26.962Z,0.80
2023-01-05T01:34:28.426Z,0.80
2023-01-05T01:37:29.835Z,1.00
2023-01-05T01:40:43.584Z,1.00
2023-01-05T01:43:53.808Z,0.70
2023-01-05T01:46:57.252Z,2.10
2023-01-05T01:50:16.073Z,1.70
2023-01-05T01:53:24.046Z,1.17
2023-01-05T01:56:29.817Z,1.40
2023-01-05T01:59:31.789Z,1.30
2023-01-05T02:02:33.922Z,1.00
2023-01-05T02:05:37.944Z,0.97
2023-01-05T02:08:39.499Z,0.97
2023-01-05T02:11:58.052Z,0.90
2023-01-05T02:15:15.286Z,1.33
2023-01-05T02:18:35.634Z,1.00
2023-01-05T02:21:53.787Z,0.77
2023-01-05T02:25:14.514Z,0.93
2023-01-05T02:28:40.531Z,1.50
2023-01-05T02:31:57.189Z,0.93
2023-01-05T02:35:13.700Z,1.33
2023-01-05T02:38:29.931Z,0.80
2023-01-05T02:41:58.800Z,1.17
2023-01-05T02:45:02.496Z,0.80
2023-01-05T02:48:04.798Z,1.67
2023-01-05T02:51:13.856Z,2.20
2023-01-05T02:54:25.748Z,0.70
2023-01-05T02:57:48.027Z,0.70
2023-01-05T03:00:59.363Z,0.90
2023-01-05T03:04:09.688Z,0.60
2023-01-05T03:07:18.061Z,1.33
2023-01-05T03:10:40.216Z,0.67
2023-01-05T03:13:45.996Z,0.80
2023-01-05T03:16:54.555Z,0.80
2023-01-05T03:19:59.778Z,1.03
2023-01-05T03:23:24.274Z,2.00
2023-01-05T03:26:44.793Z,1.03
2023-01-05T03:30:06.082Z,1.30
2023-01-05T03:33:37.225Z,1.53
2023-01-05T03:36:47.502Z,1.63
2023-01-05T03:39:49.347Z,0.53
2023-01-05T03:42:51.190Z,0.93
2023-01-05T03:45:56.271Z,0.70
2023-01-05T03:49:01.151Z,0.93
2023-01-05T03:52:02.994Z,0.60
2023-01-05T03:55:05.223Z,0.80
2023-01-05T03:58:07.912Z,1.03
2023-01-05T04:01:10.099Z,1.17
2023-01-05T04:04:13.844Z,0.53
2023-01-05T04:07:15.513Z,0.60
2023-01-05T04:10:17.106Z,1.17
2023-01-05T04:13:19.277Z,0.40
2023-01-05T04:16:20.975Z,1.10
2023-01-05T04:19:24.470Z,2.00
2023-01-05T04:22:28.411Z,0.47
2023-01-05T04:25:30.406Z,0.70
2023-01-05T04:28:39.248Z,0.60
2023-01-05T04:31:40.724Z,1.67
2023-01-05T04:34:42.930Z,0.90
2023-01-05T04:37:44.515Z,1.23
2023-01-05T04:40:50.571Z,1.03
2023-01-05T04:43:53.853Z,0.80
2023-01-05T04:46:55.797Z,0.90
2023-01-05T04:49:58.569Z,1.93
2023-01-05T04:53:00.201Z,0.90
2023-01-05T04:56:04.491Z,2.63
2023-01-05T04:59:10.881Z,0.93
2023-01-05T05:02:12.820Z,0.60
2023-01-05T05:05:17.054Z,2.70
2023-01-05T05:08:18.588Z,2.00
2023-01-05T05:11:20.528Z,2.83
2023-01-05T05:14:23.866Z,4.23
2023-01-05T05:17:25.853Z,7.83
2023-01-05T05:20:27.300Z,6.80
2023-01-05T05:23:29.014Z,6.73
2023-01-05T05:26:32.183Z,8.77
2023-01-05T05:29:34.489Z,7.80
2023-01-05T05:32:40.846Z,7.53
2023-01-05T05:35:45.265Z,6.93
2023-01-05T05:38:46.668Z,10.13
2023-01-05T05:41:48.132Z,6.73
2023-01-05T05:44:49.582Z,8.93
2023-01-05T05:47:51.034Z,8.50
2023-01-05T05:50:52.452Z,6.33
2023-01-05T05:53:53.875Z,6.83
2023-01-05T05:56:55.471Z,10.30
2023-01-05T05:59:56.936Z,7.33
2023-01-05T06:02:58.452Z,6.27
2023-01-05T06:06:01.433Z,7.63
2023-01-05T06:09:02.850Z,10.63
2023-01-05T06:12:04.597Z,10.30
2023-01-05T06:15:06.827Z,12.07
2023-01-05T06:18:08.616Z,7.50
2023-01-05T06:21:10.086Z,7.90
2023-01-05T06:24:11.495Z,8.70
2023-01-05T06:27:12.947Z,7.80
2023-01-05T06:30:14.543Z,10.53
2023-01-05T06:33:15.938Z,8.43
2023-01-05T06:36:17.416Z,8.40
2023-01-05T06:39:18.859Z,9.93
2023-01-05T06:42:23.449Z,10.03
2023-01-05T06:45:25.209Z,8.83
2023-01-05T06:48:26.736Z,6.67
2023-01-05T06:51:28.198Z,8.90
2023-01-05T06:54:29.595Z,9.53
2023-01-05T06:57:31.031Z,8.60
2023-01-05T07:00:32.635Z,8.53
2023-01-05T07:03:34.153Z,8.63
2023-01-05T07:06:36.033Z,9.50
2023-01-05T07:09:37.462Z,7.27
2023-01-05T07:12:38.838Z,7.60
2023-01-05T07:15:40.208Z,8.37
2023-01-05T07:18:41.604Z,12.00
2023-01-05T07:21:43.027Z,10.50
2023-01-05T07:24:44.444Z,9.00
2023-01-05T07:27:50.995Z,10.90
2023-01-05T07:30:52.618Z,9.77
2023-01-05T07:33:53.977Z,8.67
2023-01-05T07:36:55.345Z,9.83
2023-01-05T07:39:56.751Z,8.67
2023-01-05T07:42:58.225Z,11.73
2023-01-05T07:46:00.821Z,10.70
2023-01-05T07:49:02.524Z,9.33
2023-01-05T07:52:04.094Z,10.87
2023-01-05T07:55:06.460Z,9.80
2023-01-05T07:58:07.862Z,9.47
2023-01-05T08:01:11.890Z,8.17
2023-01-05T08:04:13.396Z,10.53
2023-01-05T08:07:15.681Z,11.77
2023-01-05T08:10:29.149Z,10.23
2023-01-05T08:13:49.238Z,13.13
2023-01-05T08:16:50.838Z,8.63
2023-01-05T08:19:52.304Z,8.53
2023-01-05T08:22:54.056Z,10.00
2023-01-05T08:25:55.647Z,6.63
2023-01-05T08:28:57.027Z,8.87
2023-01-05T08:31:58.528Z,7.77
2023-01-05T08:34:59.937Z,11.40
2023-01-05T08:38:01.399Z,10.53
2023-01-05T08:41:03.324Z,8.83
2023-01-05T08:44:12.003Z,12.30
2023-01-05T08:47:13.406Z,9.47
2023-01-05T08:50:14.913Z,11.13
2023-01-05T08:53:16.383Z,6.77
2023-01-05T08:56:18.282Z,10.43
2023-01-05T08:59:19.668Z,9.17
2023-01-05T09:02:25.447Z,9.60
2023-01-05T09:05:27.496Z,8.60
2023-01-05T09:08:33.700Z,8.27
2023-01-05T09:11:35.179Z,7.73
2023-01-05T09:14:36.677Z,6.60
2023-01-05T09:17:38.409Z,6.40
2023-01-05T09:20:40.259Z,15.10
2023-01-05T09:23:41.901Z,13.00
2023-01-05T09:26:43.689Z,13.83
2023-01-05T09:29:45.151Z,9.43
2023-01-05T09:32:46.622Z,12.60
2023-01-05T09:35:55.183Z,11.90
2023-01-05T09:38:57.038Z,12.07
2023-01-05T09:42:02.800Z,7.00
2023-01-05T09:45:06.032Z,9.03
2023-01-05T09:48:14.346Z,10.80
2023-01-05T09:51:15.819Z,8.03
2023-01-05T09:54:18.671Z,11.47
2023-01-05T09:57:26.549Z,11.60
2023-01-05T10:00:29.289Z,11.17
2023-01-05T10:04:02.543Z,10.10
2023-01-05T10:06:57.254Z,10.53
2023-01-05T10:10:05.303Z,12.53
2023-01-05T10:13:11.204Z,12.33
2023-01-05T10:16:17.010Z,11.33
2023-01-05T10:19:20.375Z,10.17
2023-01-05T10:22:42.824Z,11.00
2023-01-05T10:25:53.505Z,6.67
2023-01-05T10:29:08.104Z,11.80
2023-01-05T10:32:31.597Z,10.07
2023-01-05T10:36:03.443Z,10.10
2023-01-05T10:39:27.958Z,13.00
2023-01-05T10:42:33.368Z,8.50
2023-01-05T10:45:51.178Z,10.13
2023-01-05T10:48:59.677Z,9.83
2023-01-05T10:52:01.626Z,15.70
2023-01-05T10:55:16.103Z,10.17
2023-01-05T10:58:27.492Z,10.03
2023-01-05T11:01:30.711Z,15.37
2023-01-05T11:04:35.450Z,12.03
2023-01-05T11:07:48.903Z,11.60
2023-01-05T11:10:55.435Z,10.50
2023-01-05T11:13:58.319Z,13.17
2023-01-05T11:17:07.542Z,14.77
2023-01-05T11:20:16.616Z,12.43
2023-01-05T11:23:36.167Z,13.97
2023-01-05T11:26:47.207Z,13.03
2023-01-05T11:30:20.232Z,14.87
2023-01-05T11:33:28.407Z,15.20
2023-01-05T11:36:29.852Z,16.43
2023-01-05T11:39:38.681Z,11.90
2023-01-05T11:42:43.400Z,10.53
2023-01-05T11:45:59.129Z,14.60
2023-01-05T11:49:00.840Z,10.53
2023-01-05T11:52:02.368Z,11.77
2023-01-05T11:55:25.178Z,10.27
2023-01-05T11:58:32.327Z,11.13
2023-01-05T12:02:16.949Z,14.43
2023-01-05T12:05:31.017Z,12.30
2023-01-05T12:08:45.296Z,10.23
2023-01-05T12:12:06.255Z,11.53
2023-01-05T12:15:35.648Z,9.97
2023-01-05T12:19:01.742Z,15.13
2023-01-05T12:22:29.068Z,10.47
2023-01-05T12:25:49.016Z,15.00
2023-01-05T12:30:43.412Z,12.50
2023-01-05T12:36:34.172Z,15.50
2023-01-05T12:39:55.819Z,11.03
2023-01-05T12:43:08.040Z,10.90
2023-01-05T12:46:33.993Z,13.57
2023-01-05T12:49:42.622Z,12.13
2023-01-05T12:52:47.690Z,14.50
2023-01-05T12:55:54.235Z,13.30
2023-01-05T12:59:17.380Z,13.63
2023-01-05T13:02:32.651Z,11.53
2023-01-05T13:05:51.449Z,11.20
2023-01-05T13:08:57.567Z,8.63
2023-01-05T13:12:06.454Z,11.80
2023-01-05T13:15:20.085Z,11.67
2023-01-05T13:18:24.402Z,14.67
2023-01-05T13:21:27.651Z,13.50
2023-01-05T13:24:38.099Z,10.93
2023-01-05T13:27:39.475Z,10.37
2023-01-05T13:30:53.129Z,10.23
2023-01-05T13:34:25.750Z,12.97
2023-01-05T13:37:41.560Z,12.20
2023-01-05T13:40:48.866Z,14.33
2023-01-05T13:44:12.054Z,16.30
2023-01-05T13:47:45.235Z,9.03
2023-01-05T13:51:17.774Z,11.63
2023-01-05T13:54:43.675Z,12.73
2023-01-05T13:57:56.559Z,10.33
2023-01-05T14:00:58.230Z,12.73
2023-01-05T14:04:00.526Z,15.07
2023-01-05T14:07:17.748Z,13.43
2023-01-05T14:10:31.719Z,14.60
2023-01-05T14:14:00.367Z,12.03
2023-01-05T14:17:01.847Z,8.23
2023-01-05T14:20:27.491Z,12.47
2023-01-05T14:23:31.818Z,14.27
2023-01-05T14:26:59.905Z,13.27
2023-01-05T14:30:02.101Z,11.37
2023-01-05T14:33:06.123Z,9.67
2023-01-05T14:36:24.980Z,8.87
2023-01-05T14:39:31.696Z,11.20
2023-01-05T14:42:39.917Z,13.13
2023-01-05T14:45:41.459Z,9.43
2023-01-05T14:48:58.972Z,11.43
2023-01-05T14:52:02.602Z,10.47
2023-01-05T14:55:07.067Z,12.93
2023-01-05T14:58:35.461Z,10.83
2023-01-05T15:02:00.239Z,9.73
2023-01-05T15:05:10.621Z,11.27
2023-01-05T15:08:46.097Z,13.67
2023-01-05T15:12:15.446Z,16.17
2023-01-05T15:15:28.728Z,14.67
2023-01-05T15:18:48.399Z,10.97
2023-01-05T15:22:13.346Z,11.23
2023-01-05T15:25:52.998Z,12.47
2023-01-05T15:29:39.690Z,10.87
2023-01-05T15:32:44.518Z,13.03
2023-01-05T15:36:01.208Z,13.63
2023-01-05T15:39:02.607Z,14.80
2023-01-05T15:42:08.502Z,14.73
2023-01-05T15:45:25.542Z,21.47
2023-01-05T15:48:39.845Z,14.57
2023-01-05T15:51:49.770Z,11.77
2023-01-05T15:55:11.558Z,11.63
2023-01-05T15:58:16.131Z,8.57
2023-01-05T16:01:17.722Z,11.80
2023-01-05T16:04:19.180Z,9.83
2023-01-05T16:07:20.596Z,9.10
2023-01-05T16:10:27.442Z,19.50
2023-01-05T16:13:43.531Z,15.70
2023-01-05T16:16:53.238Z,13.13
2023-01-05T16:20:01.103Z,10.90
2023-01-05T16:23:14.511Z,12.23
2023-01-05T16:26:18.800Z,9.87
2023-01-05T16:29:34.132Z,11.00
2023-01-05T16:32:37.958Z,13.63
2023-01-05T16:35:43.596Z,11.53
2023-01-05T16:38:45.823Z,19.63
2023-01-05T16:42:05.937Z,19.93
2023-01-05T16:45:17.563Z,28.33
2023-01-05T16:48:40.297Z,14.13
2023-01-05T16:51:42.660Z,10.73
2023-01-05T16:54:44.893Z,12.77
2023-01-05T16:57:46.291Z,12.33
2023-01-05T17:00:47.698Z,16.63
2023-01-05T17:03:49.334Z,11.43
2023-01-05T17:06:52.086Z,11.37
2023-01-05T17:09:54.247Z,10.40
2023-01-05T17:13:00.274Z,15.20
2023-01-05T17:16:03.831Z,11.97
2023-01-05T17:19:23.554Z,9.13
2023-01-05T17:22:25.083Z,13.40
2023-01-05T17:25:32.827Z,22.03
2023-01-05T17:28:34.490Z,22.33
2023-01-05T17:31:35.967Z,14.13
2023-01-05T17:34:38.783Z,14.50
2023-01-05T17:37:41.996Z,13.03
2023-01-05T17:40:43.523Z,9.33
2023-01-05T17:43:45.758Z,13.73
2023-01-05T17:46:47.776Z,12.50
2023-01-05T17:49:49.188Z,9.10
2023-01-05T17:52:50.596Z,13.30
2023-01-05T17:55:52.094Z,11.17
2023-01-05T17:58:53.557Z,11.87
2023-01-05T18:01:55.426Z,13.03
2023-01-05T18:04:56.915Z,10.03
2023-01-05T18:07:58.315Z,12.93
2023-01-05T18:11:07.359Z,13.00
2023-01-05T18:14:08.753Z,16.70
2023-01-05T18:17:10.465Z,14.30
2023-01-05T18:20:15.146Z,12.37
2023-01-05T18:23:19.311Z,14.67
2023-01-05T18:26:20.710Z,12.83
2023-01-05T18:29:22.115Z,13.93
2023-01-05T18:32:24.079Z,14.10
2023-01-05T18:35:25.499Z,12.27
2023-01-05T18:38:27.984Z,15.70
2023-01-05T18:41:29.513Z,11.87
2023-01-05T18:44:31.127Z,13.17
2023-01-05T18:47:32.542Z,12.20
2023-01-05T18:50:33.967Z,12.40
2023-01-05T18:53:38.945Z,10.93
2023-01-05T18:56:40.335Z,9.90
2023-01-05T18:59:41.991Z,10.63
2023-01-05T19:02:43.388Z,11.27
2023-01-05T19:05:44.853Z,9.90
2023-01-05T19:08:48.801Z,10.87
2023-01-05T19:11:50.253Z,7.43
2023-01-05T19:14:51.666Z,11.93
2023-01-05T19:17:53.405Z,10.37
2023-01-05T19:20:56.829Z,10.87
2023-01-05T19:23:59.972Z,17.10
2023-01-05T19:27:01.446Z,8.43
2023-01-05T19:30:02.934Z,11.20
2023-01-05T19:33:04.340Z,14.33
2023-01-05T19:36:12.403Z,8.17
2023-01-05T19:39:18.949Z,6.50
2023-01-05T19:42:20.359Z,6.83
2023-01-05T19:45:21.798Z,6.60
2023-01-05T19:48:23.192Z,8.20
2023-01-05T19:51:26.791Z,4.50
2023-01-05T19:54:28.617Z,7.60
2023-01-05T19:57:30.211Z,6.43
2023-01-05T20:00:31.665Z,7.20
2023-01-05T20:03:33.296Z,5.63
2023-01-05T20:06:38.155Z,4.20
2023-01-05T20:09:39.961Z,6.47
2023-01-05T20:12:41.393Z,7.67
2023-01-05T20:15:42.894Z,5.30
2023-01-05T20:18:44.331Z,7.83
2023-01-05T20:21:47.685Z,4.80
2023-01-05T20:24:49.080Z,6.93
2023-01-05T20:27:50.536Z,4.80
2023-01-05T20:30:51.933Z,5.23
2023-01-05T20:33:55.058Z,6.37
2023-01-05T20:36:56.615Z,6.27
2023-01-05T20:40:00.425Z,7.20
2023-01-05T20:43:02.620Z,6.50
2023-01-05T20:46:04.158Z,5.13
2023-01-05T20:49:06.137Z,4.37
2023-01-05T20:52:09.779Z,6.17
2023-01-05T20:55:11.233Z,4.60
2023-01-05T20:58:12.615Z,5.80
2023-01-05T21:01:15.101Z,6.07
2023-01-05T21:04:17.239Z,5.90
2023-01-05T21:07:22.780Z,7.13
2023-01-05T21:10:24.169Z,5.53
2023-01-05T21:13:32.046Z,6.50
2023-01-05T21:16:42.702Z,8.10
2023-01-05T21:19:44.492Z,10.37
2023-01-05T21:22:45.875Z,7.53
2023-01-05T21:26:06.097Z,10.23
2023-01-05T21:29:10.893Z,9.77
2023-01-05T21:32:12.464Z,7.70
2023-01-05T21:35:14.000Z,5.63
2023-01-05T21:38:15.445Z,6.87
2023-01-05T21:41:16.837Z,7.10
2023-01-05T21:44:19.790Z,6.90
2023-01-05T21:47:21.278Z,7.43
2023-01-05T21:50:42.328Z,7.63
2023-01-05T21:54:02.758Z,8.83
2023-01-05T21:57:04.608Z,9.23
2023-01-05T22:00:06.886Z,4.90
2023-01-05T22:03:08.698Z,6.70
2023-01-05T22:06:10.177Z,5.73
2023-01-05T22:09:11.566Z,6.70
2023-01-05T22:12:13.095Z,9.17
2023-01-05T22:15:14.481Z,4.60
2023-01-05T22:18:15.969Z,4.57
2023-01-05T22:21:17.537Z,4.80
2023-01-05T22:24:19.343Z,9.57
2023-01-05T22:27:20.788Z,7.27
2023-01-05T22:30:22.339Z,6.27
2023-01-05T22:33:23.752Z,7.20
2023-01-05T22:36:27.336Z,5.27
2023-01-05T22:39:28.740Z,6.40
2023-01-05T22:42:30.148Z,6.37
2023-01-05T22:45:32.743Z,6.47
2023-01-05T22:48:36.648Z,4.10
2023-01-05T22:51:41.023Z,7.67
2023-01-05T22:54:42.480Z,6.37
2023-01-05T22:57:43.919Z,6.93
2023-01-05T23:00:45.372Z,8.70
2023-01-05T23:03:47.666Z,8.83
2023-01-05T23:06:49.148Z,11.23
2023-01-05T23:09:50.587Z,12.93
2023-01-05T23:12:51.984Z,11.40
2023-01-05T23:15:55.396Z,7.90
2023-01-05T23:18:56.810Z,9.33
2023-01-05T23:21:58.215Z,7.07
2023-01-05T23:24:59.820Z,6.33
2023-01-05T23:28:01.208Z,5.67
2023-01-05T23:31:03.438Z,5.43
2023-01-05T23:34:04.908Z,6.43
2023-01-05T23:37:06.303Z,5.47
2023-01-05T23:40:08.243Z,4.47
2023-01-05T23:43:14.240Z,8.60
2023-01-05T23:46:20.194Z,5.03
2023-01-05T23:49:21.805Z,5.40
2023-01-05T23:52:23.192Z,4.03
2023-01-05T23:55:24.593Z,3.97
2023-01-05T23:58:25.981Z,3.77
